SWA9984 KTTN-KPVD
Flight info
| Callsign | SWA9984 |
|---|---|
| Flight time | 0h 35m |
| Altitude | 23000 |
| Route | RBV Q430 CREEL ORCHA JORDN JORDN2 |
| Aircraft | B38M/M-SDE1FGHILORVWXY/HB1 |
Departure
| Time | 2026-05-03 22:02 |
|---|---|
| Airport | Trenton Mercer Airport (KTTN) |
Arrival
| Time | 2026-05-03 22:37 |
|---|---|
| Airport | Rhode Island T. F. Green International Airport (KPVD) |
| Time | Latitude | Longitude | Altitude | Speed | Heading |
|---|---|---|---|---|---|
| 2026-05-03 21:42 | 40.27752 | -74.81730 | 196 ft | 0 kts | 279° |
| 2026-05-03 21:53 | 40.27749 | -74.81712 | 195 ft | 2 kts | 279° |
| 2026-05-03 21:54 | 40.27747 | -74.81692 | 195 ft | 2 kts | 279° |
| 2026-05-03 21:54 | 40.27745 | -74.81677 | 194 ft | 1 kts | 277° |
| 2026-05-03 21:54 | 40.27742 | -74.81670 | 194 ft | 0 kts | 340° |
| 2026-05-03 21:54 | 40.27732 | -74.81670 | 194 ft | 2 kts | 22° |
| 2026-05-03 21:55 | 40.27723 | -74.81674 | 194 ft | 1 kts | 8° |
| 2026-05-03 21:55 | 40.27721 | -74.81674 | 194 ft | 0 kts | 8° |
| 2026-05-03 21:57 | 40.27732 | -74.81672 | 194 ft | 3 kts | 7° |
| 2026-05-03 21:57 | 40.27770 | -74.81665 | 194 ft | 7 kts | 8° |
| 2026-05-03 21:58 | 40.27832 | -74.81651 | 196 ft | 10 kts | 9° |
| 2026-05-03 21:58 | 40.27899 | -74.81638 | 197 ft | 8 kts | 11° |
| 2026-05-03 21:58 | 40.27932 | -74.81583 | 198 ft | 8 kts | 84° |
| 2026-05-03 21:58 | 40.27924 | -74.81482 | 197 ft | 16 kts | 98° |
| 2026-05-03 21:59 | 40.27898 | -74.81289 | 195 ft | 25 kts | 99° |
| 2026-05-03 21:59 | 40.27872 | -74.81067 | 191 ft | 15 kts | 98° |
| 2026-05-03 21:59 | 40.27818 | -74.80944 | 188 ft | 17 kts | 154° |
| 2026-05-03 21:59 | 40.27739 | -74.80953 | 187 ft | 10 kts | 215° |
| 2026-05-03 22:00 | 40.27683 | -74.80998 | 186 ft | 8 kts | 183° |
| 2026-05-03 22:00 | 40.27619 | -74.80951 | 184 ft | 12 kts | 144° |
| 2026-05-03 22:00 | 40.27536 | -74.80875 | 181 ft | 16 kts | 145° |
| 2026-05-03 22:00 | 40.27452 | -74.80801 | 177 ft | 13 kts | 151° |
| 2026-05-03 22:01 | 40.27353 | -74.80805 | 173 ft | 15 kts | 191° |
| 2026-05-03 22:01 | 40.27323 | -74.80856 | 173 ft | 7 kts | 303° |
| 2026-05-03 22:01 | 40.27393 | -74.80926 | 176 ft | 40 kts | 324° |
| 2026-05-03 22:01 | 40.27895 | -74.81376 | 195 ft | 131 kts | 326° |
| 2026-05-03 22:02 | 40.28801 | -74.82190 | 714 ft | 169 kts | 323° |
| 2026-05-03 22:02 | 40.29839 | -74.82964 | 1469 ft | 181 kts | 334° |
| 2026-05-03 22:02 | 40.31182 | -74.82982 | 2166 ft | 212 kts | 15° |
| 2026-05-03 22:02 | 40.32389 | -74.81689 | 2661 ft | 247 kts | 53° |
| 2026-05-03 22:03 | 40.32925 | -74.79471 | 3596 ft | 266 kts | 84° |
| 2026-05-03 22:03 | 40.32657 | -74.76994 | 4432 ft | 285 kts | 109° |
| 2026-05-03 22:03 | 40.31771 | -74.74634 | 5332 ft | 296 kts | 119° |
| 2026-05-03 22:03 | 40.30707 | -74.72321 | 6368 ft | 300 kts | 121° |
| 2026-05-03 22:04 | 40.29600 | -74.69983 | 7377 ft | 305 kts | 121° |
| 2026-05-03 22:04 | 40.28492 | -74.67612 | 8351 ft | 311 kts | 120° |
| 2026-05-03 22:04 | 40.27374 | -74.65179 | 9354 ft | 315 kts | 119° |
| 2026-05-03 22:04 | 40.26254 | -74.62721 | 10267 ft | 321 kts | 118° |
| 2026-05-03 22:05 | 40.25575 | -74.61224 | 10637 ft | 330 kts | 118° |
| 2026-05-03 22:05 | 40.24373 | -74.58571 | 11236 ft | 346 kts | 118° |
| 2026-05-03 22:05 | 40.23126 | -74.55817 | 11771 ft | 363 kts | 118° |
| 2026-05-03 22:05 | 40.21938 | -74.52827 | 12305 ft | 377 kts | 110° |
| 2026-05-03 22:06 | 40.21304 | -74.50124 | 12706 ft | 387 kts | 95° |
| 2026-05-03 22:06 | 40.21249 | -74.46564 | 13168 ft | 394 kts | 77° |
| 2026-05-03 22:06 | 40.21908 | -74.43053 | 13626 ft | 401 kts | 67° |
| 2026-05-03 22:06 | 40.22804 | -74.39580 | 14382 ft | 405 kts | 65° |
| 2026-05-03 22:07 | 40.23741 | -74.36086 | 15046 ft | 411 kts | 65° |
| 2026-05-03 22:07 | 40.24696 | -74.32550 | 15713 ft | 417 kts | 66° |
| 2026-05-03 22:07 | 40.25670 | -74.28916 | 16414 ft | 423 kts | 66° |
| 2026-05-03 22:07 | 40.26639 | -74.25270 | 17100 ft | 428 kts | 66° |
| 2026-05-03 22:08 | 40.27615 | -74.21571 | 17716 ft | 434 kts | 66° |
| 2026-05-03 22:08 | 40.28597 | -74.17830 | 18402 ft | 438 kts | 66° |
| 2026-05-03 22:08 | 40.29600 | -74.13998 | 19065 ft | 443 kts | 66° |
| 2026-05-03 22:08 | 40.30607 | -74.10136 | 19700 ft | 448 kts | 66° |
| 2026-05-03 22:09 | 40.31609 | -74.06292 | 20362 ft | 452 kts | 66° |
| 2026-05-03 22:09 | 40.32619 | -74.02408 | 20980 ft | 457 kts | 66° |
| 2026-05-03 22:09 | 40.33660 | -73.98398 | 21611 ft | 460 kts | 66° |
| 2026-05-03 22:10 | 40.35727 | -73.90424 | 22760 ft | 469 kts | 66° |
| 2026-05-03 22:10 | 40.36776 | -73.86372 | 22915 ft | 472 kts | 66° |
| 2026-05-03 22:10 | 40.37826 | -73.82304 | 22910 ft | 470 kts | 66° |
| 2026-05-03 22:10 | 40.38879 | -73.78216 | 22921 ft | 470 kts | 66° |
| 2026-05-03 22:11 | 40.39924 | -73.74150 | 22916 ft | 470 kts | 66° |
| 2026-05-03 22:11 | 40.40969 | -73.70079 | 22913 ft | 470 kts | 66° |
| 2026-05-03 22:11 | 40.42007 | -73.66030 | 22912 ft | 473 kts | 66° |
| 2026-05-03 22:11 | 40.43078 | -73.61867 | 22915 ft | 486 kts | 66° |
| 2026-05-03 22:12 | 40.44188 | -73.57631 | 22915 ft | 494 kts | 65° |
| 2026-05-03 22:12 | 40.45419 | -73.53476 | 22922 ft | 490 kts | 62° |
| 2026-05-03 22:12 | 40.46840 | -73.49359 | 22913 ft | 490 kts | 59° |
| 2026-05-03 22:12 | 40.48348 | -73.45342 | 22912 ft | 488 kts | 57° |
| 2026-05-03 22:13 | 40.49889 | -73.41396 | 22910 ft | 488 kts | 57° |
| 2026-05-03 22:13 | 40.51448 | -73.37453 | 22903 ft | 487 kts | 57° |
| 2026-05-03 22:13 | 40.53019 | -73.33475 | 22910 ft | 487 kts | 57° |
| 2026-05-03 22:13 | 40.54567 | -73.29527 | 22903 ft | 487 kts | 58° |
| 2026-05-03 22:14 | 40.56117 | -73.25542 | 22911 ft | 487 kts | 58° |
| 2026-05-03 22:14 | 40.57645 | -73.21586 | 22969 ft | 487 kts | 58° |
| 2026-05-03 22:14 | 40.58278 | -73.19939 | 23010 ft | 488 kts | 58° |
| 2026-05-03 22:14 | 40.58339 | -73.19779 | 23013 ft | 488 kts | 58° |
| 2026-05-03 22:15 | 40.59780 | -73.16019 | 23034 ft | 488 kts | 58° |
| 2026-05-03 22:15 | 40.61269 | -73.12106 | 22829 ft | 477 kts | 58° |
| 2026-05-03 22:15 | 40.62764 | -73.08161 | 22220 ft | 474 kts | 58° |
| 2026-05-03 22:15 | 40.64215 | -73.04326 | 21449 ft | 465 kts | 58° |
| 2026-05-03 22:16 | 40.65644 | -73.00537 | 21101 ft | 458 kts | 58° |
| 2026-05-03 22:16 | 40.67070 | -72.96765 | 21068 ft | 461 kts | 58° |
| 2026-05-03 22:16 | 40.68274 | -72.93584 | 21040 ft | 463 kts | 58° |
| 2026-05-03 22:16 | 40.69710 | -72.89782 | 21033 ft | 460 kts | 58° |
| 2026-05-03 22:17 | 40.71145 | -72.85977 | 21037 ft | 462 kts | 58° |
| 2026-05-03 22:17 | 40.72571 | -72.82191 | 21036 ft | 461 kts | 58° |
| 2026-05-03 22:17 | 40.74001 | -72.78383 | 21031 ft | 460 kts | 58° |
| 2026-05-03 22:17 | 40.75413 | -72.74620 | 21033 ft | 461 kts | 58° |
| 2026-05-03 22:18 | 40.76849 | -72.70790 | 21032 ft | 460 kts | 58° |
| 2026-05-03 22:18 | 40.78270 | -72.66992 | 21031 ft | 461 kts | 58° |
| 2026-05-03 22:18 | 40.79687 | -72.63199 | 21031 ft | 461 kts | 58° |
| 2026-05-03 22:18 | 40.81120 | -72.59359 | 21034 ft | 461 kts | 58° |
| 2026-05-03 22:19 | 40.82530 | -72.55575 | 21030 ft | 460 kts | 58° |
| 2026-05-03 22:19 | 40.83937 | -72.51793 | 21026 ft | 460 kts | 58° |
| 2026-05-03 22:19 | 40.85349 | -72.47990 | 21024 ft | 460 kts | 59° |
| 2026-05-03 22:19 | 40.86761 | -72.44187 | 21024 ft | 461 kts | 58° |
| 2026-05-03 22:20 | 40.88175 | -72.40370 | 21025 ft | 460 kts | 58° |
| 2026-05-03 22:20 | 40.89580 | -72.36575 | 21025 ft | 460 kts | 59° |
| 2026-05-03 22:20 | 40.91000 | -72.32735 | 21021 ft | 461 kts | 59° |
| 2026-05-03 22:20 | 40.92390 | -72.28946 | 20998 ft | 450 kts | 59° |
| 2026-05-03 22:21 | 40.93666 | -72.25352 | 20728 ft | 422 kts | 60° |
| 2026-05-03 22:21 | 40.94862 | -72.21911 | 20059 ft | 407 kts | 60° |
| 2026-05-03 22:21 | 40.96033 | -72.18529 | 19246 ft | 396 kts | 60° |
| 2026-05-03 22:21 | 40.97163 | -72.15274 | 18440 ft | 386 kts | 60° |
| 2026-05-03 22:22 | 40.98269 | -72.12094 | 17610 ft | 378 kts | 60° |
| 2026-05-03 22:22 | 40.99367 | -72.08944 | 16743 ft | 371 kts | 60° |
| 2026-05-03 22:22 | 41.00435 | -72.05888 | 15889 ft | 365 kts | 59° |
| 2026-05-03 22:22 | 41.01477 | -72.02904 | 15046 ft | 359 kts | 59° |
| 2026-05-03 22:23 | 41.02527 | -71.99903 | 14184 ft | 354 kts | 59° |
| 2026-05-03 22:23 | 41.03538 | -71.97011 | 13362 ft | 350 kts | 59° |
| 2026-05-03 22:23 | 41.04547 | -71.94121 | 12529 ft | 345 kts | 59° |
| 2026-05-03 22:23 | 41.05622 | -71.91340 | 11693 ft | 336 kts | 52° |
| 2026-05-03 22:24 | 41.06955 | -71.88836 | 11174 ft | 323 kts | 45° |
| 2026-05-03 22:24 | 41.08387 | -71.86568 | 11017 ft | 322 kts | 43° |
| 2026-05-03 22:24 | 41.09872 | -71.84329 | 10920 ft | 326 kts | 42° |
| 2026-05-03 22:24 | 41.11373 | -71.82051 | 10450 ft | 325 kts | 43° |
| 2026-05-03 22:25 | 41.12837 | -71.79781 | 9648 ft | 321 kts | 43° |
| 2026-05-03 22:25 | 41.14262 | -71.77530 | 8817 ft | 317 kts | 44° |
| 2026-05-03 22:25 | 41.15677 | -71.75275 | 7984 ft | 314 kts | 44° |
| 2026-05-03 22:25 | 41.17057 | -71.73071 | 7293 ft | 307 kts | 44° |
| 2026-05-03 22:26 | 41.18373 | -71.70958 | 7019 ft | 288 kts | 44° |
| 2026-05-03 22:26 | 41.19632 | -71.68935 | 7012 ft | 281 kts | 43° |
| 2026-05-03 22:26 | 41.20877 | -71.66949 | 6985 ft | 279 kts | 43° |
| 2026-05-03 22:26 | 41.22123 | -71.64964 | 7007 ft | 278 kts | 43° |
| 2026-05-03 22:27 | 41.23360 | -71.62993 | 7082 ft | 277 kts | 43° |
| 2026-05-03 22:27 | 41.24612 | -71.60992 | 7057 ft | 280 kts | 43° |
| 2026-05-03 22:27 | 41.25852 | -71.59005 | 6988 ft | 278 kts | 43° |
| 2026-05-03 22:27 | 41.27078 | -71.57037 | 6973 ft | 278 kts | 43° |
| 2026-05-03 22:28 | 41.28307 | -71.55062 | 7024 ft | 277 kts | 43° |
| 2026-05-03 22:28 | 41.29546 | -71.53075 | 6942 ft | 278 kts | 43° |
| 2026-05-03 22:28 | 41.30777 | -71.51096 | 6883 ft | 276 kts | 43° |
| 2026-05-03 22:28 | 41.32003 | -71.49123 | 6855 ft | 276 kts | 43° |
| 2026-05-03 22:29 | 41.33242 | -71.47132 | 6900 ft | 276 kts | 43° |
| 2026-05-03 22:29 | 41.34472 | -71.45156 | 6874 ft | 277 kts | 43° |
| 2026-05-03 22:29 | 41.35708 | -71.43162 | 6799 ft | 276 kts | 43° |
| 2026-05-03 22:29 | 41.36959 | -71.41239 | 6505 ft | 276 kts | 36° |
| 2026-05-03 22:30 | 41.38580 | -71.40054 | 5964 ft | 257 kts | 6° |
| 2026-05-03 22:30 | 41.40326 | -71.39740 | 5462 ft | 252 kts | 3° |
| 2026-05-03 22:30 | 41.42014 | -71.39094 | 5034 ft | 256 kts | 17° |
| 2026-05-03 22:30 | 41.43623 | -71.38076 | 4968 ft | 257 kts | 20° |
| 2026-05-03 22:31 | 41.45250 | -71.36996 | 4960 ft | 260 kts | 19° |
| 2026-05-03 22:31 | 41.46901 | -71.35943 | 4715 ft | 261 kts | 19° |
| 2026-05-03 22:31 | 41.48547 | -71.34930 | 4166 ft | 257 kts | 18° |
| 2026-05-03 22:31 | 41.50127 | -71.33969 | 3978 ft | 253 kts | 18° |
| 2026-05-03 22:32 | 41.51748 | -71.32989 | 3956 ft | 253 kts | 18° |
| 2026-05-03 22:32 | 41.53353 | -71.32015 | 3960 ft | 252 kts | 18° |
| 2026-05-03 22:32 | 41.54961 | -71.31034 | 3764 ft | 252 kts | 18° |
| 2026-05-03 22:32 | 41.56531 | -71.30078 | 3227 ft | 249 kts | 18° |
| 2026-05-03 22:33 | 41.58109 | -71.29276 | 2954 ft | 235 kts | 8° |
| 2026-05-03 22:33 | 41.59717 | -71.29223 | 2948 ft | 226 kts | 341° |
| 2026-05-03 22:33 | 41.61049 | -71.30267 | 2953 ft | 222 kts | 316° |
| 2026-05-03 22:33 | 41.62136 | -71.31660 | 2951 ft | 203 kts | 317° |
| 2026-05-03 22:34 | 41.63201 | -71.32802 | 2763 ft | 191 kts | 322° |
| 2026-05-03 22:34 | 41.64238 | -71.33822 | 2440 ft | 174 kts | 319° |
| 2026-05-03 22:34 | 41.65062 | -71.34903 | 2441 ft | 156 kts | 314° |
| 2026-05-03 22:34 | 41.65862 | -71.35892 | 2251 ft | 155 kts | 319° |
| 2026-05-03 22:35 | 41.66708 | -71.36762 | 1785 ft | 147 kts | 321° |
| 2026-05-03 22:35 | 41.67490 | -71.37528 | 1549 ft | 135 kts | 323° |
| 2026-05-03 22:35 | 41.68288 | -71.38170 | 1350 ft | 131 kts | 327° |
| 2026-05-03 22:35 | 41.69044 | -71.38827 | 1121 ft | 126 kts | 321° |
| 2026-05-03 22:36 | 41.69749 | -71.39580 | 900 ft | 129 kts | 320° |
| 2026-05-03 22:36 | 41.70437 | -71.40318 | 653 ft | 125 kts | 319° |
| 2026-05-03 22:36 | 41.71139 | -71.41064 | 348 ft | 136 kts | 321° |
| 2026-05-03 22:36 | 41.71884 | -71.41863 | 96 ft | 129 kts | 320° |
| 2026-05-03 22:37 | 41.72499 | -71.42510 | 65 ft | 69 kts | 322° |
| 2026-05-03 22:37 | 41.72782 | -71.42812 | 68 ft | 45 kts | 321° |
| 2026-05-03 22:37 | 41.72921 | -71.43032 | 69 ft | 17 kts | 269° |
| 2026-05-03 22:37 | 41.72921 | -71.43047 | 69 ft | 0 kts | 268° |
| 2026-05-03 22:40 | 41.72920 | -71.43050 | 69 ft | 1 kts | 268° |
| 2026-05-03 22:40 | 41.72919 | -71.43088 | 70 ft | 5 kts | 268° |
| 2026-05-03 22:40 | 41.72917 | -71.43143 | 70 ft | 5 kts | 267° |
| 2026-05-03 22:40 | 41.72916 | -71.43191 | 70 ft | 4 kts | 268° |
| 2026-05-03 22:41 | 41.72913 | -71.43239 | 70 ft | 6 kts | 267° |
| 2026-05-03 22:41 | 41.72911 | -71.43294 | 71 ft | 4 kts | 267° |
| 2026-05-03 22:41 | 41.72904 | -71.43339 | 71 ft | 5 kts | 247° |
| 2026-05-03 22:41 | 41.72881 | -71.43380 | 72 ft | 5 kts | 224° |
| 2026-05-03 22:42 | 41.72847 | -71.43396 | 72 ft | 6 kts | 189° |
| 2026-05-03 22:42 | 41.72805 | -71.43394 | 72 ft | 0 kts | 175° |